createdAt,value
2023-05-07T00:01:47.309Z,18.55
2023-05-07T00:04:15.396Z,18.52
2023-05-07T00:06:43.396Z,18.50
2023-05-07T00:09:11.815Z,18.52
2023-05-07T00:11:39.802Z,18.56
2023-05-07T00:14:09.084Z,18.56
2023-05-07T00:16:37.093Z,18.56
2023-05-07T00:19:05.044Z,18.53
2023-05-07T00:21:32.921Z,18.52
2023-05-07T00:24:00.831Z,18.51
2023-05-07T00:26:28.742Z,18.50
2023-05-07T00:28:57.289Z,18.50
2023-05-07T00:31:26.739Z,18.51
2023-05-07T00:33:54.705Z,18.50
2023-05-07T00:36:22.603Z,18.47
2023-05-07T00:38:50.500Z,18.48
2023-05-07T00:41:18.662Z,18.46
2023-05-07T00:43:46.902Z,18.48
2023-05-07T00:46:15.554Z,18.45
2023-05-07T00:48:45.253Z,18.42
2023-05-07T00:51:13.618Z,18.42
2023-05-07T00:53:41.878Z,18.40
2023-05-07T00:56:10.217Z,18.39
2023-05-07T00:58:38.334Z,18.39
2023-05-07T01:01:06.280Z,18.48
2023-05-07T01:03:34.219Z,18.53
2023-05-07T01:06:05.491Z,18.51
2023-05-07T01:08:36.156Z,18.51
2023-05-07T01:11:04.753Z,18.51
2023-05-07T01:13:33.233Z,18.50
2023-05-07T01:16:01.384Z,18.49
2023-05-07T01:18:30.965Z,18.47
2023-05-07T01:21:00.958Z,18.46
2023-05-07T01:23:31.865Z,18.46
2023-05-07T01:25:59.807Z,18.48
2023-05-07T01:28:29.565Z,18.51
2023-05-07T01:31:05.080Z,18.48
2023-05-07T01:33:37.062Z,18.48
2023-05-07T01:36:07.773Z,18.47
2023-05-07T01:38:38.391Z,18.48
2023-05-07T01:41:06.927Z,18.46
2023-05-07T01:43:36.070Z,18.46
2023-05-07T01:46:04.799Z,18.47
2023-05-07T01:48:33.804Z,18.44
2023-05-07T01:51:02.330Z,18.45
2023-05-07T01:53:30.531Z,18.45
2023-05-07T01:55:59.825Z,18.42
2023-05-07T01:58:27.833Z,18.40
2023-05-07T02:00:55.778Z,18.38
2023-05-07T02:03:23.920Z,18.41
2023-05-07T02:06:01.003Z,18.43
2023-05-07T02:08:38.571Z,18.45
2023-05-07T02:11:08.322Z,18.45
2023-05-07T02:13:38.479Z,18.40
2023-05-07T02:16:07.716Z,18.28
2023-05-07T02:18:36.735Z,18.32
2023-05-07T02:21:04.990Z,18.27
2023-05-07T02:23:32.951Z,18.15
2023-05-07T02:26:01.173Z,18.05
2023-05-07T02:28:30.513Z,17.86
2023-05-07T02:31:06.421Z,17.76
2023-05-07T02:33:35.981Z,17.88
2023-05-07T02:36:09.879Z,17.91
2023-05-07T02:38:42.737Z,17.83
2023-05-07T02:41:10.865Z,17.72
2023-05-07T02:43:40.365Z,17.57
2023-05-07T02:46:10.698Z,17.41
2023-05-07T02:48:42.586Z,17.32
2023-05-07T02:51:10.648Z,17.21
2023-05-07T02:53:41.268Z,17.21
2023-05-07T02:56:09.210Z,17.21
2023-05-07T02:58:37.158Z,17.23
2023-05-07T03:01:07.769Z,17.21
2023-05-07T03:03:54.493Z,17.20
2023-05-07T03:06:22.615Z,17.21
2023-05-07T03:08:50.569Z,17.19
2023-05-07T03:11:18.585Z,17.18
2023-05-07T03:13:46.542Z,17.22
2023-05-07T03:16:16.663Z,17.24
2023-05-07T03:18:44.639Z,17.17
2023-05-07T03:21:13.947Z,17.22
2023-05-07T03:23:41.869Z,17.22
2023-05-07T03:26:09.821Z,17.20
2023-05-07T03:28:38.882Z,17.09
2023-05-07T03:31:11.265Z,17.18
2023-05-07T03:33:51.939Z,17.27
2023-05-07T03:36:20.096Z,17.16
2023-05-07T03:38:48.356Z,16.95
2023-05-07T03:41:20.301Z,17.02
2023-05-07T03:43:48.551Z,17.14
2023-05-07T03:46:16.763Z,17.13
2023-05-07T03:48:46.432Z,17.10
2023-05-07T03:51:16.177Z,17.05
2023-05-07T03:53:44.135Z,17.13
2023-05-07T03:56:12.182Z,17.16
2023-05-07T03:58:41.913Z,17.19
2023-05-07T04:01:12.536Z,17.19
2023-05-07T04:03:40.556Z,17.23
2023-05-07T04:06:09.965Z,17.23
2023-05-07T04:08:38.533Z,17.25
2023-05-07T04:11:07.993Z,17.17
2023-05-07T04:13:38.392Z,17.12
2023-05-07T04:16:08.863Z,17.16
2023-05-07T04:18:38.346Z,17.10
2023-05-07T04:21:07.102Z,17.00
2023-05-07T04:23:39.337Z,17.00
2023-05-07T04:26:11.453Z,17.04
2023-05-07T04:28:45.825Z,17.13
2023-05-07T04:31:14.199Z,17.12
2023-05-07T04:33:42.635Z,17.04
2023-05-07T04:36:14.087Z,16.98
2023-05-07T04:38:52.340Z,16.98
2023-05-07T04:41:21.659Z,17.07
2023-05-07T04:43:50.122Z,17.04
2023-05-07T04:46:19.742Z,17.05
2023-05-07T04:48:49.295Z,17.01
2023-05-07T04:51:17.688Z,17.05
2023-05-07T04:53:45.772Z,17.03
2023-05-07T04:56:15.129Z,17.05
2023-05-07T04:58:45.356Z,17.06
2023-05-07T05:01:13.820Z,17.06
2023-05-07T05:03:42.717Z,17.11
2023-05-07T05:06:10.905Z,17.13
2023-05-07T05:08:38.865Z,17.14
2023-05-07T05:11:07.040Z,17.16
2023-05-07T05:13:38.286Z,17.19
2023-05-07T05:16:12.984Z,17.21
2023-05-07T05:18:41.988Z,17.22
2023-05-07T05:21:11.943Z,17.24
2023-05-07T05:23:41.070Z,17.22
2023-05-07T05:26:09.652Z,17.22
2023-05-07T05:28:39.317Z,17.23
2023-05-07T05:31:07.874Z,17.26
2023-05-07T05:33:37.958Z,17.23
2023-05-07T05:36:07.984Z,17.25
2023-05-07T05:38:36.997Z,17.23
2023-05-07T05:41:05.794Z,17.22
2023-05-07T05:43:33.889Z,17.20
2023-05-07T05:46:03.436Z,17.26
2023-05-07T05:48:32.134Z,17.28
2023-05-07T05:51:02.400Z,17.27
2023-05-07T05:53:30.484Z,17.32
2023-05-07T05:55:58.841Z,17.40
2023-05-07T05:58:26.901Z,17.44
2023-05-07T06:01:00.243Z,17.46
2023-05-07T06:03:31.438Z,17.36
2023-05-07T06:06:02.695Z,17.19
2023-05-07T06:08:32.044Z,16.99
2023-05-07T06:11:01.070Z,16.79
2023-05-07T06:13:30.640Z,16.78
2023-05-07T06:15:58.638Z,16.96
2023-05-07T06:18:27.117Z,17.04
2023-05-07T06:20:56.760Z,17.13
2023-05-07T06:23:28.896Z,17.06
2023-05-07T06:25:56.843Z,17.15
2023-05-07T06:28:31.822Z,17.22
2023-05-07T06:31:13.671Z,17.21
2023-05-07T06:33:42.640Z,17.22
2023-05-07T06:36:12.139Z,17.12
2023-05-07T06:38:41.231Z,17.03
2023-05-07T06:41:09.274Z,17.13
2023-05-07T06:43:39.586Z,17.34
2023-05-07T06:46:32.460Z,17.43
2023-05-07T06:49:00.579Z,17.41
2023-05-07T06:51:31.212Z,17.36
2023-05-07T06:54:05.381Z,17.42
2023-05-07T06:56:35.203Z,17.55
2023-05-07T06:59:05.430Z,17.78
2023-05-07T07:01:37.866Z,17.91
2023-05-07T07:04:07.219Z,18.03
2023-05-07T07:06:36.631Z,18.13
2023-05-07T07:09:09.694Z,18.17
2023-05-07T07:11:37.825Z,18.17
2023-05-07T07:14:07.274Z,18.24
2023-05-07T07:16:41.066Z,18.33
2023-05-07T07:19:09.246Z,18.38
2023-05-07T07:21:39.239Z,18.43
2023-05-07T07:24:07.406Z,18.44
2023-05-07T07:26:35.363Z,18.51
2023-05-07T07:29:03.309Z,18.56
2023-05-07T07:31:31.973Z,18.61
2023-05-07T07:34:00.145Z,18.65
2023-05-07T07:36:42.521Z,18.63
2023-05-07T07:39:15.459Z,18.67
2023-05-07T07:41:44.277Z,18.66
2023-05-07T07:44:16.100Z,18.67
2023-05-07T07:46:47.926Z,18.60
2023-05-07T07:49:16.980Z,18.56
2023-05-07T07:51:46.488Z,18.57
2023-05-07T07:54:16.726Z,18.63
2023-05-07T07:56:45.064Z,18.65
2023-05-07T07:59:18.749Z,18.74
2023-05-07T08:01:49.287Z,18.87
2023-05-07T08:04:17.263Z,18.97
2023-05-07T08:06:45.876Z,19.15
2023-05-07T08:09:14.012Z,19.34
2023-05-07T08:11:44.800Z,19.25
2023-05-07T08:14:13.475Z,19.27
2023-05-07T08:16:41.831Z,19.17
2023-05-07T08:19:09.974Z,19.14
2023-05-07T08:21:41.721Z,19.18
2023-05-07T08:24:11.601Z,19.28
2023-05-07T08:26:40.401Z,19.36
2023-05-07T08:29:10.858Z,19.52
2023-05-07T08:31:39.705Z,19.60
2023-05-07T08:34:09.548Z,19.66
2023-05-07T08:36:42.755Z,19.63
2023-05-07T08:39:12.606Z,19.67
2023-05-07T08:41:40.788Z,19.66
2023-05-07T08:44:14.515Z,19.60
2023-05-07T08:46:44.475Z,19.56
2023-05-07T08:49:12.831Z,19.53
2023-05-07T08:51:41.014Z,19.45
2023-05-07T08:54:11.186Z,19.50
2023-05-07T08:56:40.659Z,19.56
2023-05-07T08:59:10.275Z,19.31
2023-05-07T09:01:39.679Z,19.15
2023-05-07T09:04:08.927Z,19.15
2023-05-07T09:06:39.052Z,19.08
2023-05-07T09:09:07.350Z,19.21
2023-05-07T09:11:35.669Z,19.18
2023-05-07T09:14:04.930Z,19.33
2023-05-07T09:16:39.933Z,19.42
2023-05-07T09:19:08.156Z,19.55
2023-05-07T09:21:37.555Z,19.64
2023-05-07T09:24:09.316Z,19.72
2023-05-07T09:26:41.646Z,19.88
2023-05-07T09:29:12.501Z,19.76
2023-05-07T09:31:42.798Z,19.76
2023-05-07T09:34:15.077Z,19.82
2023-05-07T09:36:46.066Z,19.68
2023-05-07T09:39:14.145Z,19.68
2023-05-07T09:41:50.391Z,19.57
2023-05-07T09:44:24.466Z,19.38
2023-05-07T09:46:56.988Z,19.41
2023-05-07T09:49:35.441Z,19.54
2023-05-07T09:52:09.764Z,19.61
2023-05-07T09:54:41.401Z,19.69
2023-05-07T09:57:11.178Z,19.63
2023-05-07T09:59:40.582Z,19.61
2023-05-07T10:02:13.928Z,19.40
2023-05-07T10:04:48.704Z,19.27
2023-05-07T10:07:20.874Z,19.33
2023-05-07T10:09:50.544Z,19.26
2023-05-07T10:12:30.436Z,19.37
2023-05-07T10:14:58.743Z,19.35
2023-05-07T10:17:28.531Z,19.46
2023-05-07T10:19:57.220Z,19.45
2023-05-07T10:22:28.293Z,19.46
2023-05-07T10:24:59.734Z,19.55
2023-05-07T10:27:28.559Z,19.43
2023-05-07T10:30:08.031Z,19.42
2023-05-07T10:32:43.457Z,19.53
2023-05-07T10:35:20.138Z,19.65
2023-05-07T10:37:50.858Z,19.71
2023-05-07T10:40:22.549Z,19.83
2023-05-07T10:42:57.395Z,19.87
2023-05-07T10:45:26.900Z,19.82
2023-05-07T10:51:21.953Z,19.40
2023-05-07T10:54:22.200Z,19.24
2023-05-07T10:56:57.922Z,19.21
2023-05-07T10:59:42.686Z,19.16
2023-05-07T11:03:18.107Z,18.92
2023-05-07T11:06:14.416Z,18.55
2023-05-07T11:09:02.967Z,18.45
2023-05-07T11:11:48.569Z,18.47
2023-05-07T11:14:46.750Z,18.48
2023-05-07T11:17:34.881Z,18.32
2023-05-07T11:20:08.639Z,18.20
2023-05-07T11:22:58.161Z,18.03
2023-05-07T11:25:40.625Z,17.95
2023-05-07T11:28:20.542Z,17.85
2023-05-07T11:30:58.133Z,17.66
2023-05-07T11:33:27.760Z,17.64
2023-05-07T11:35:58.448Z,17.66
2023-05-07T11:38:37.865Z,17.68
2023-05-07T11:41:06.359Z,17.65
2023-05-07T11:43:36.599Z,17.51
2023-05-07T11:46:09.520Z,17.47
2023-05-07T11:48:38.030Z,17.56
2023-05-07T11:51:07.435Z,17.53
2023-05-07T11:53:41.637Z,17.60
2023-05-07T11:56:10.215Z,17.71
2023-05-07T11:58:38.546Z,17.64
2023-05-07T12:01:09.227Z,17.64
2023-05-07T12:03:38.370Z,17.74
2023-05-07T12:06:08.594Z,17.74
2023-05-07T12:08:40.261Z,17.73
2023-05-07T12:11:14.575Z,17.71
2023-05-07T12:13:43.586Z,17.67
2023-05-07T12:16:12.221Z,17.60
2023-05-07T12:18:40.425Z,17.60
2023-05-07T12:21:09.476Z,17.51
2023-05-07T12:23:40.445Z,17.49
2023-05-07T12:26:08.460Z,17.55
2023-05-07T12:28:41.130Z,17.57
2023-05-07T12:31:09.850Z,17.60
2023-05-07T12:33:38.253Z,17.70
2023-05-07T12:36:09.158Z,17.76
2023-05-07T12:38:38.768Z,17.82
2023-05-07T12:41:09.249Z,17.83
2023-05-07T12:43:37.260Z,17.72
2023-05-07T12:46:06.815Z,17.65
2023-05-07T12:48:35.302Z,17.61
2023-05-07T12:51:04.032Z,17.56
2023-05-07T12:53:32.479Z,17.60
2023-05-07T12:56:01.794Z,17.60
2023-05-07T12:58:32.616Z,17.71
2023-05-07T13:01:02.641Z,17.73
2023-05-07T13:03:32.688Z,17.83
2023-05-07T13:06:02.229Z,17.87
2023-05-07T13:08:32.346Z,17.79
2023-05-07T13:11:04.266Z,17.72
2023-05-07T13:13:34.773Z,17.84
2023-05-07T13:16:03.429Z,17.87
2023-05-07T13:18:32.672Z,17.96
2023-05-07T13:21:01.637Z,18.06
2023-05-07T13:23:29.614Z,18.00
2023-05-07T13:25:57.953Z,17.85
2023-05-07T13:28:26.821Z,17.79
2023-05-07T13:30:56.456Z,17.66
2023-05-07T13:33:25.192Z,17.60
2023-05-07T13:35:53.079Z,17.70
2023-05-07T13:38:22.021Z,17.65
2023-05-07T13:40:51.069Z,17.58
2023-05-07T13:43:19.849Z,17.43
2023-05-07T13:45:47.838Z,17.29
2023-05-07T13:48:17.133Z,17.21
2023-05-07T13:50:45.109Z,17.18
2023-05-07T13:53:13.059Z,17.26
2023-05-07T13:55:41.165Z,17.27
2023-05-07T13:58:09.125Z,17.32
2023-05-07T14:00:37.116Z,17.37
2023-05-07T14:03:07.303Z,17.37
2023-05-07T14:05:37.206Z,17.21
2023-05-07T14:08:06.191Z,17.21
2023-05-07T14:10:35.677Z,17.27
2023-05-07T14:13:03.831Z,17.26
2023-05-07T14:15:33.328Z,17.18
2023-05-07T14:18:02.341Z,17.15
2023-05-07T14:20:31.858Z,17.22
2023-05-07T14:23:01.142Z,17.21
2023-05-07T14:25:29.181Z,17.12
2023-05-07T14:27:57.085Z,17.09
2023-05-07T14:30:25.586Z,16.89
2023-05-07T14:32:53.598Z,16.86
2023-05-07T14:35:21.608Z,16.86
2023-05-07T14:37:49.512Z,16.76
2023-05-07T14:40:18.846Z,16.53
2023-05-07T14:42:46.823Z,16.35
2023-05-07T14:45:14.731Z,16.12
2023-05-07T14:47:43.189Z,16.16
2023-05-07T14:50:11.645Z,16.24
2023-05-07T14:52:39.668Z,16.25
2023-05-07T14:55:08.283Z,16.15
2023-05-07T14:57:37.675Z,16.13
2023-05-07T15:00:08.062Z,16.22
2023-05-07T15:02:36.612Z,16.31
2023-05-07T15:05:04.939Z,16.46
2023-05-07T15:07:33.685Z,16.63
2023-05-07T15:10:01.711Z,16.77
2023-05-07T15:12:29.610Z,16.85
2023-05-07T15:14:58.927Z,16.97
2023-05-07T15:17:26.896Z,17.04
2023-05-07T15:19:54.873Z,16.94
2023-05-07T15:22:23.337Z,16.77
2023-05-07T15:24:51.218Z,16.69
2023-05-07T15:27:19.236Z,16.69
2023-05-07T15:29:47.115Z,16.82
2023-05-07T15:32:16.348Z,16.92
2023-05-07T15:34:44.356Z,16.85
2023-05-07T15:37:14.264Z,16.68
2023-05-07T15:39:42.183Z,16.62
2023-05-07T15:42:10.102Z,16.71
2023-05-07T15:44:38.197Z,16.82
2023-05-07T15:47:06.180Z,16.93
2023-05-07T15:49:35.841Z,16.95
2023-05-07T15:52:03.847Z,17.00
2023-05-07T15:54:31.957Z,17.06
2023-05-07T15:56:59.805Z,17.02
2023-05-07T15:59:28.095Z,17.01
2023-05-07T16:01:56.055Z,17.05
2023-05-07T16:04:23.960Z,17.08
2023-05-07T16:06:53.682Z,17.12
2023-05-07T16:09:21.707Z,17.11
2023-05-07T16:11:50.593Z,17.10
2023-05-07T16:14:18.600Z,17.13
2023-05-07T16:16:46.654Z,17.14
2023-05-07T16:19:14.568Z,17.14
2023-05-07T16:21:43.049Z,17.09
2023-05-07T16:24:12.361Z,17.04
2023-05-07T16:26:40.314Z,17.01
2023-05-07T16:29:08.396Z,17.03
2023-05-07T16:31:36.560Z,17.03
2023-05-07T16:34:04.555Z,16.97
2023-05-07T16:36:32.553Z,16.86
2023-05-07T16:39:00.529Z,16.87
2023-05-07T16:41:29.793Z,16.90
2023-05-07T16:43:57.898Z,16.87
2023-05-07T16:46:26.494Z,16.85
2023-05-07T16:48:54.969Z,16.86
2023-05-07T16:51:24.562Z,16.87
2023-05-07T16:53:52.584Z,16.87
2023-05-07T16:56:21.061Z,16.87
2023-05-07T16:58:50.417Z,16.88
2023-05-07T17:01:19.008Z,16.85
2023-05-07T17:03:47.133Z,16.88
2023-05-07T17:06:15.403Z,16.85
2023-05-07T17:08:43.473Z,16.78
2023-05-07T17:11:12.011Z,16.76
2023-05-07T17:13:41.128Z,16.71
2023-05-07T17:16:10.445Z,16.72
2023-05-07T17:18:38.512Z,16.74
2023-05-07T17:21:06.482Z,16.70
2023-05-07T17:23:34.386Z,16.63
2023-05-07T17:26:02.439Z,16.44
2023-05-07T17:28:30.886Z,16.32
2023-05-07T17:30:58.795Z,16.22
2023-05-07T17:33:28.056Z,16.13
2023-05-07T17:35:56.025Z,16.13
2023-05-07T17:38:24.058Z,16.15
2023-05-07T17:40:51.955Z,16.25
2023-05-07T17:43:19.856Z,16.27
2023-05-07T17:45:48.308Z,16.27
2023-05-07T17:48:17.369Z,16.17
2023-05-07T17:50:46.857Z,15.98
2023-05-07T17:53:14.769Z,15.77
2023-05-07T17:55:43.856Z,15.71
2023-05-07T17:58:11.951Z,15.77
2023-05-07T18:00:39.892Z,15.89
2023-05-07T18:03:07.910Z,15.98
2023-05-07T18:05:37.924Z,15.98
2023-05-07T18:08:07.810Z,16.01
2023-05-07T18:10:35.775Z,16.02
2023-05-07T18:13:03.750Z,16.60
2023-05-07T18:15:31.730Z,16.36
2023-05-07T18:17:59.768Z,16.23
2023-05-07T18:20:27.784Z,16.17
2023-05-07T18:22:55.854Z,16.11
2023-05-07T18:25:25.458Z,16.10
2023-05-07T18:27:53.385Z,16.02
2023-05-07T18:30:22.173Z,16.06
2023-05-07T18:32:50.503Z,16.10
2023-05-07T18:35:19.082Z,16.08
2023-05-07T18:37:47.012Z,16.05
2023-05-07T18:40:15.305Z,15.90
2023-05-07T18:42:44.759Z,16.01
2023-05-07T18:45:13.318Z,16.12
2023-05-07T18:47:41.265Z,16.16
2023-05-07T18:50:10.103Z,16.15
2023-05-07T18:52:38.489Z,16.15
2023-05-07T18:55:07.960Z,16.15
2023-05-07T18:57:35.947Z,16.05
2023-05-07T19:00:09.311Z,15.96
2023-05-07T19:02:37.377Z,15.96
2023-05-07T19:05:06.341Z,16.06
2023-05-07T19:07:34.290Z,16.11
2023-05-07T19:10:05.616Z,16.20
2023-05-07T19:12:34.174Z,16.21
2023-05-07T19:15:02.098Z,16.22
2023-05-07T19:17:31.425Z,16.24
2023-05-07T19:19:59.470Z,16.26
2023-05-07T19:22:27.443Z,16.20
2023-05-07T19:24:55.430Z,16.13
2023-05-07T19:27:23.429Z,16.09
2023-05-07T19:29:51.356Z,16.02
2023-05-07T19:32:21.293Z,15.76
2023-05-07T19:34:50.987Z,15.61
2023-05-07T19:37:22.879Z,15.64
2023-05-07T19:39:51.162Z,15.77
2023-05-07T19:42:19.146Z,15.84
2023-05-07T19:44:47.076Z,15.91
2023-05-07T19:47:16.189Z,15.97
2023-05-07T19:49:44.185Z,15.97
2023-05-07T19:52:13.589Z,15.97
2023-05-07T19:54:41.566Z,15.85
2023-05-07T19:57:09.519Z,15.88
2023-05-07T19:59:37.430Z,15.93
2023-05-07T20:02:05.578Z,15.95
2023-05-07T20:04:37.848Z,15.98
2023-05-07T20:07:06.029Z,16.03
2023-05-07T20:09:35.422Z,16.05
2023-05-07T20:12:03.389Z,16.04
2023-05-07T20:14:32.113Z,16.04
2023-05-07T20:17:00.053Z,16.02
2023-05-07T20:19:27.959Z,15.98
2023-05-07T20:21:56.932Z,16.00
2023-05-07T20:24:24.843Z,15.96
2023-05-07T20:26:54.185Z,15.90
2023-05-07T20:29:23.726Z,15.87
2023-05-07T20:31:51.774Z,15.87
2023-05-07T20:34:19.684Z,15.84
2023-05-07T20:36:47.598Z,15.85
2023-05-07T20:39:16.280Z,15.84
2023-05-07T20:41:44.952Z,15.83
2023-05-07T20:44:14.293Z,15.82
2023-05-07T20:46:42.463Z,15.85
2023-05-07T20:49:10.372Z,15.83
2023-05-07T20:51:38.350Z,15.79
2023-05-07T20:54:08.606Z,15.75
2023-05-07T20:56:36.550Z,15.77
2023-05-07T20:59:04.470Z,15.78
2023-05-07T21:01:34.608Z,16.26
2023-05-07T21:04:02.803Z,16.01
2023-05-07T21:06:30.839Z,15.92
2023-05-07T21:08:58.719Z,15.85
2023-05-07T21:11:26.652Z,16.12
2023-05-07T21:13:54.582Z,15.96
2023-05-07T21:16:22.961Z,15.84
2023-05-07T21:18:52.343Z,15.82
2023-05-07T21:21:20.268Z,15.80
2023-05-07T21:23:48.192Z,15.78
2023-05-07T21:26:19.727Z,15.72
2023-05-07T21:28:47.695Z,15.72
2023-05-07T21:31:15.690Z,15.73
2023-05-07T21:33:44.117Z,15.71
2023-05-07T21:36:13.902Z,15.75
2023-05-07T21:38:41.941Z,15.72
2023-05-07T21:41:09.980Z,15.67
2023-05-07T21:43:37.892Z,15.65
2023-05-07T21:46:08.133Z,16.10
2023-05-07T21:48:36.345Z,15.87
2023-05-07T21:51:05.888Z,15.78
2023-05-07T21:53:36.009Z,15.73
2023-05-07T21:56:05.092Z,15.71
2023-05-07T21:58:33.239Z,15.69
2023-05-07T22:01:01.865Z,15.69
2023-05-07T22:03:29.989Z,15.66
2023-05-07T22:05:58.132Z,15.66
2023-05-07T22:08:26.167Z,15.64
2023-05-07T22:10:55.605Z,15.63
2023-05-07T22:13:23.601Z,15.62
2023-05-07T22:15:57.482Z,15.62
2023-05-07T22:18:26.243Z,15.63
2023-05-07T22:20:54.306Z,15.65
2023-05-07T22:23:22.288Z,15.66
2023-05-07T22:25:50.228Z,15.69
2023-05-07T22:28:19.533Z,15.76
2023-05-07T22:30:47.533Z,15.74
2023-05-07T22:33:15.433Z,15.65
2023-05-07T22:35:43.557Z,15.61
2023-05-07T22:38:11.495Z,16.08
2023-05-07T22:40:39.848Z,15.87
2023-05-07T22:43:07.789Z,15.76
2023-05-07T22:45:37.198Z,15.76
2023-05-07T22:48:05.661Z,15.76
2023-05-07T22:50:37.752Z,15.74
2023-05-07T22:53:05.726Z,15.74
2023-05-07T22:55:34.026Z,15.73
2023-05-07T22:58:01.976Z,16.26
2023-05-07T23:00:30.016Z,15.97
2023-05-07T23:02:59.394Z,15.84
2023-05-07T23:05:27.391Z,15.79
2023-05-07T23:07:55.891Z,15.75
2023-05-07T23:10:23.814Z,15.75
2023-05-07T23:12:52.056Z,15.74
2023-05-07T23:15:20.726Z,15.75
2023-05-07T23:17:48.762Z,15.73
2023-05-07T23:20:18.277Z,15.71
2023-05-07T23:22:46.190Z,16.13
2023-05-07T23:25:14.057Z,15.84
2023-05-07T23:27:42.021Z,15.73
2023-05-07T23:30:11.507Z,15.65
2023-05-07T23:32:39.650Z,15.58
2023-05-07T23:35:08.555Z,15.47
2023-05-07T23:37:37.893Z,15.41
2023-05-07T23:40:07.384Z,15.44
2023-05-07T23:42:35.485Z,15.40
2023-05-07T23:45:03.605Z,15.42
2023-05-07T23:47:31.703Z,15.48
2023-05-07T23:49:59.653Z,15.46
2023-05-07T23:52:27.683Z,15.46
2023-05-07T23:54:57.047Z,15.47
2023-05-07T23:57:25.022Z,15.46
2023-05-07T23:59:53.178Z,15.48
